createdAt,value
2022-10-08T00:01:16.691Z,1.90
2022-10-08T00:03:47.170Z,1.45
2022-10-08T00:06:18.384Z,1.95
2022-10-08T00:08:50.474Z,1.65
2022-10-08T00:11:22.244Z,1.45
2022-10-08T00:13:51.498Z,1.58
2022-10-08T00:16:21.608Z,1.67
2022-10-08T00:18:51.136Z,1.42
2022-10-08T00:21:22.038Z,1.67
2022-10-08T00:23:51.141Z,1.55
2022-10-08T00:26:23.614Z,1.90
2022-10-08T00:28:52.874Z,1.77
2022-10-08T00:31:22.770Z,1.58
2022-10-08T00:33:51.671Z,1.83
2022-10-08T00:36:20.793Z,1.48
2022-10-08T00:38:49.323Z,1.80
2022-10-08T00:41:20.738Z,1.50
2022-10-08T00:43:50.515Z,1.40
2022-10-08T00:46:25.307Z,2.33
2022-10-08T00:49:01.017Z,1.75
2022-10-08T00:51:30.901Z,1.50
2022-10-08T00:53:59.173Z,1.60
2022-10-08T00:56:27.206Z,1.90
2022-10-08T00:58:55.004Z,1.45
2022-10-08T01:01:23.043Z,1.63
2022-10-08T01:03:50.799Z,1.38
2022-10-08T01:06:27.235Z,1.55
2022-10-08T01:09:03.862Z,1.48
2022-10-08T01:11:44.441Z,1.95
2022-10-08T01:14:25.195Z,1.50
2022-10-08T01:17:01.451Z,1.52
2022-10-08T01:20:04.754Z,1.30
2022-10-08T01:22:44.538Z,1.77
2022-10-08T01:25:34.164Z,1.65
2022-10-08T01:28:12.225Z,2.13
2022-10-08T01:30:46.319Z,2.13
2022-10-08T01:33:23.725Z,1.33
2022-10-08T01:35:57.234Z,1.25
2022-10-08T01:38:28.111Z,1.05
2022-10-08T01:41:00.274Z,1.67
2022-10-08T01:43:33.638Z,1.38
2022-10-08T01:48:36.046Z,1.17
2022-10-08T01:51:08.735Z,1.77
2022-10-08T01:53:40.557Z,1.60
2022-10-08T01:56:12.121Z,1.48
2022-10-08T01:58:49.872Z,1.55
2022-10-08T02:01:24.510Z,1.25
2022-10-08T02:04:10.864Z,1.30
2022-10-08T02:06:43.646Z,1.30
2022-10-08T02:09:12.211Z,2.28
2022-10-08T02:11:40.214Z,1.13
2022-10-08T02:14:09.433Z,0.75
2022-10-08T02:16:46.755Z,1.20
2022-10-08T02:19:24.009Z,1.55
2022-10-08T02:21:54.096Z,1.20
2022-10-08T02:24:30.483Z,1.23
2022-10-08T02:27:01.719Z,1.10
2022-10-08T02:29:37.381Z,1.02
2022-10-08T02:32:11.234Z,1.35
2022-10-08T02:34:44.345Z,1.45
2022-10-08T02:37:16.986Z,1.15
2022-10-08T02:39:51.520Z,0.73
2022-10-08T02:42:23.569Z,1.00
2022-10-08T02:44:57.630Z,1.27
2022-10-08T02:47:30.345Z,1.17
2022-10-08T02:50:02.669Z,1.02
2022-10-08T02:52:35.291Z,1.10
2022-10-08T02:55:08.228Z,1.33
2022-10-08T02:57:42.396Z,0.77
2022-10-08T03:00:13.223Z,1.50
2022-10-08T03:02:45.070Z,1.05
2022-10-08T03:05:18.193Z,1.38
2022-10-08T03:07:48.411Z,1.17
2022-10-08T03:10:16.282Z,0.93
2022-10-08T03:12:44.199Z,1.10
2022-10-08T03:15:15.890Z,1.02
2022-10-08T03:17:46.934Z,1.90
2022-10-08T03:20:15.489Z,2.78
2022-10-08T03:22:43.289Z,2.00
2022-10-08T03:25:11.130Z,1.20
2022-10-08T03:27:38.801Z,2.03
2022-10-08T03:30:07.613Z,1.10
2022-10-08T03:32:36.642Z,1.30
2022-10-08T03:35:04.558Z,1.77
2022-10-08T03:37:32.221Z,1.52
2022-10-08T03:39:59.916Z,1.08
2022-10-08T03:42:27.665Z,1.92
2022-10-08T03:44:55.808Z,1.63
2022-10-08T03:47:23.595Z,0.95
2022-10-08T03:49:52.665Z,1.45
2022-10-08T03:52:20.361Z,1.42
2022-10-08T03:54:48.123Z,1.23
2022-10-08T03:57:15.808Z,1.10
2022-10-08T03:59:43.526Z,2.03
2022-10-08T04:02:11.277Z,1.58
2022-10-08T04:04:39.035Z,1.50
2022-10-08T04:07:08.088Z,0.95
2022-10-08T04:09:35.748Z,1.20
2022-10-08T04:12:03.417Z,1.63
2022-10-08T04:14:31.133Z,1.13
2022-10-08T04:16:58.803Z,1.40
2022-10-08T04:19:26.505Z,1.10
2022-10-08T04:21:54.154Z,1.42
2022-10-08T04:24:23.210Z,1.63
2022-10-08T04:26:50.899Z,1.10
2022-10-08T04:29:18.604Z,1.17
2022-10-08T04:31:46.270Z,0.90
2022-10-08T04:34:14.104Z,1.90
2022-10-08T04:36:41.791Z,1.40
2022-10-08T04:39:09.615Z,1.70
2022-10-08T04:41:38.636Z,1.17
2022-10-08T04:44:06.457Z,1.60
2022-10-08T04:46:34.267Z,1.70
2022-10-08T04:49:02.152Z,1.50
2022-10-08T04:51:30.478Z,1.40
2022-10-08T04:53:59.126Z,1.10
2022-10-08T04:56:28.980Z,1.15
2022-10-08T04:58:59.315Z,1.05
2022-10-08T05:01:28.492Z,1.52
2022-10-08T05:03:57.733Z,1.30
2022-10-08T05:06:28.280Z,1.77
2022-10-08T05:08:56.541Z,1.20
2022-10-08T05:11:25.285Z,2.00
2022-10-08T05:13:54.927Z,1.10
2022-10-08T05:16:25.150Z,2.20
2022-10-08T05:18:53.562Z,1.30
2022-10-08T05:21:23.730Z,1.10
2022-10-08T05:23:55.657Z,1.02
2022-10-08T05:26:41.521Z,1.35
2022-10-08T05:29:13.099Z,1.33
2022-10-08T05:31:42.174Z,1.65
2022-10-08T05:34:16.576Z,1.08
2022-10-08T05:36:44.526Z,1.35
2022-10-08T05:39:12.605Z,1.27
2022-10-08T05:41:40.293Z,1.33
2022-10-08T05:44:10.700Z,1.38
2022-10-08T05:46:39.544Z,1.65
2022-10-08T05:49:16.466Z,1.30
2022-10-08T05:51:44.191Z,1.00
2022-10-08T05:54:11.937Z,1.48
2022-10-08T05:56:39.885Z,1.30
2022-10-08T05:59:07.578Z,1.40
2022-10-08T06:01:35.490Z,1.15
2022-10-08T06:04:08.863Z,1.63
2022-10-08T06:06:39.608Z,1.58
2022-10-08T06:09:08.883Z,1.13
2022-10-08T06:11:38.151Z,1.52
2022-10-08T06:14:07.461Z,2.20
2022-10-08T06:16:35.938Z,1.50
2022-10-08T06:19:05.160Z,1.15
2022-10-08T06:21:33.604Z,1.63
2022-10-08T06:24:05.122Z,1.30
2022-10-08T06:26:35.938Z,1.10
2022-10-08T06:29:06.204Z,1.40
2022-10-08T06:31:34.526Z,1.70
2022-10-08T06:34:04.227Z,1.58
2022-10-08T06:36:32.828Z,1.02
2022-10-08T06:39:03.980Z,1.58
2022-10-08T06:41:33.290Z,1.40
2022-10-08T06:44:01.438Z,1.27
2022-10-08T06:46:31.155Z,0.90
2022-10-08T06:49:00.368Z,1.40
2022-10-08T06:51:29.011Z,0.88
2022-10-08T06:54:02.838Z,1.20
2022-10-08T06:56:36.287Z,1.17
2022-10-08T06:59:04.570Z,1.13
2022-10-08T07:01:34.045Z,1.60
2022-10-08T07:04:03.271Z,1.70
2022-10-08T07:06:31.251Z,2.28
2022-10-08T07:09:00.966Z,2.75
2022-10-08T07:11:29.242Z,1.27
2022-10-08T07:13:58.667Z,1.98
2022-10-08T07:16:27.879Z,1.80
2022-10-08T07:18:58.290Z,1.45
2022-10-08T07:21:26.470Z,1.88
2022-10-08T07:23:54.176Z,1.90
2022-10-08T07:26:23.231Z,1.95
2022-10-08T07:28:52.694Z,1.60
2022-10-08T07:31:24.066Z,1.48
2022-10-08T07:33:51.918Z,1.45
2022-10-08T07:36:24.027Z,2.25
2022-10-08T07:38:55.158Z,1.65
2022-10-08T07:41:23.178Z,1.30
2022-10-08T07:43:52.322Z,1.67
2022-10-08T07:46:21.982Z,1.63
2022-10-08T07:48:50.707Z,1.85
2022-10-08T07:51:20.517Z,1.42
2022-10-08T07:53:48.489Z,1.90
2022-10-08T07:56:18.222Z,1.55
2022-10-08T07:58:47.242Z,1.75
2022-10-08T08:01:17.898Z,1.08
2022-10-08T08:03:47.077Z,1.73
2022-10-08T08:06:16.966Z,1.15
2022-10-08T08:08:46.000Z,1.77
2022-10-08T08:11:15.617Z,1.42
2022-10-08T08:13:43.929Z,1.55
2022-10-08T08:16:13.194Z,2.25
2022-10-08T08:18:42.921Z,1.00
2022-10-08T08:21:15.144Z,1.70
2022-10-08T08:23:44.962Z,1.88
2022-10-08T08:26:14.943Z,1.77
2022-10-08T08:28:42.941Z,2.03
2022-10-08T08:31:12.901Z,1.45
2022-10-08T08:33:41.325Z,1.70
2022-10-08T08:36:09.821Z,1.13
2022-10-08T08:38:39.579Z,1.50
2022-10-08T08:41:18.549Z,1.45
2022-10-08T08:43:48.450Z,1.80
2022-10-08T08:46:22.266Z,1.52
2022-10-08T08:48:54.522Z,1.48
2022-10-08T08:51:22.371Z,1.40
2022-10-08T08:53:51.609Z,3.42
2022-10-08T08:56:23.598Z,2.60
2022-10-08T08:59:00.297Z,2.15
2022-10-08T09:01:34.572Z,2.58
2022-10-08T09:04:10.605Z,1.88
2022-10-08T09:06:40.646Z,1.30
2022-10-08T09:09:21.610Z,1.52
2022-10-08T09:11:49.518Z,1.63
2022-10-08T09:14:31.947Z,1.63
2022-10-08T09:17:01.668Z,0.98
2022-10-08T09:19:29.502Z,1.75
2022-10-08T09:21:57.234Z,1.27
2022-10-08T09:24:29.679Z,1.15
2022-10-08T09:26:57.815Z,1.67
2022-10-08T09:29:34.253Z,1.30
2022-10-08T09:32:01.970Z,1.23
2022-10-08T09:34:29.710Z,2.47
2022-10-08T09:37:05.593Z,1.45
2022-10-08T09:39:37.110Z,1.15
2022-10-08T09:42:17.221Z,0.90
2022-10-08T09:44:47.015Z,0.63
2022-10-08T09:47:16.405Z,1.58
2022-10-08T09:49:49.705Z,1.73
2022-10-08T09:54:53.283Z,1.67
2022-10-08T09:57:22.783Z,1.75
2022-10-08T09:59:53.964Z,1.23
2022-10-08T10:02:31.127Z,1.05
2022-10-08T10:05:00.190Z,2.55
2022-10-08T10:07:39.470Z,1.65
2022-10-08T10:10:19.074Z,2.45
2022-10-08T10:12:50.416Z,1.77
2022-10-08T10:15:23.138Z,2.03
2022-10-08T10:17:53.266Z,0.95
2022-10-08T10:20:27.292Z,1.83
2022-10-08T10:23:00.039Z,1.38
2022-10-08T10:25:38.042Z,1.50
2022-10-08T10:28:09.620Z,1.58
2022-10-08T10:30:49.917Z,0.98
2022-10-08T10:33:21.579Z,1.25
2022-10-08T10:35:53.793Z,1.70
2022-10-08T10:38:25.083Z,1.17
2022-10-08T10:41:05.751Z,1.00
2022-10-08T10:43:44.060Z,1.60
2022-10-08T10:46:25.158Z,1.38
2022-10-08T10:48:52.915Z,0.82
2022-10-08T10:51:41.281Z,0.90
2022-10-08T10:54:43.945Z,0.82
2022-10-08T10:57:22.546Z,1.75
2022-10-08T11:00:03.826Z,0.68
2022-10-08T11:02:36.150Z,1.15
2022-10-08T11:05:08.619Z,1.07
2022-10-08T11:07:52.261Z,1.92
2022-10-08T11:10:33.177Z,1.45
2022-10-08T11:13:12.594Z,1.15
2022-10-08T11:15:45.703Z,1.60
2022-10-08T11:18:24.944Z,1.17
2022-10-08T11:21:10.781Z,0.63
2022-10-08T11:23:55.736Z,0.85
2022-10-08T11:26:31.757Z,0.95
2022-10-08T11:29:15.261Z,0.68
2022-10-08T11:34:22.410Z,0.55
2022-10-08T11:37:03.643Z,0.93
2022-10-08T11:39:40.388Z,1.75
2022-10-08T11:42:16.077Z,1.08
2022-10-08T11:44:45.161Z,0.65
2022-10-08T11:47:47.145Z,0.73
2022-10-08T11:50:25.558Z,0.65
2022-10-08T11:52:55.845Z,0.75
2022-10-08T11:55:26.483Z,0.95
2022-10-08T11:58:08.687Z,1.90
2022-10-08T12:00:44.318Z,1.17
2022-10-08T12:03:27.038Z,0.80
2022-10-08T12:05:56.990Z,1.85
2022-10-08T12:08:51.575Z,0.90
2022-10-08T12:11:50.755Z,1.02
2022-10-08T12:14:48.692Z,0.90
2022-10-08T12:17:18.537Z,0.85
2022-10-08T12:20:18.825Z,0.52
2022-10-08T12:23:01.037Z,2.63
2022-10-08T12:26:08.940Z,0.73
2022-10-08T12:28:54.541Z,0.60
2022-10-08T12:31:29.681Z,1.38
2022-10-08T12:34:04.997Z,0.75
2022-10-08T12:36:56.702Z,1.25
2022-10-08T12:39:35.998Z,0.73
2022-10-08T12:42:13.774Z,0.75
2022-10-08T12:44:54.099Z,0.70
2022-10-08T12:47:37.151Z,1.27
2022-10-08T12:50:25.604Z,1.20
2022-10-08T12:52:53.621Z,0.70
2022-10-08T12:55:24.301Z,1.27
2022-10-08T12:57:53.398Z,1.60
2022-10-08T13:00:24.320Z,0.90
2022-10-08T13:03:03.434Z,1.15
2022-10-08T13:05:37.660Z,0.63
2022-10-08T13:08:34.877Z,1.00
2022-10-08T13:11:05.284Z,0.93
2022-10-08T13:13:36.661Z,1.33
2022-10-08T13:16:06.045Z,0.68
2022-10-08T13:18:36.533Z,0.47
2022-10-08T13:21:07.873Z,1.15
2022-10-08T13:23:37.252Z,1.25
2022-10-08T13:26:05.058Z,0.60
2022-10-08T13:28:59.055Z,0.93
2022-10-08T13:31:24.322Z,0.60
2022-10-08T13:33:52.445Z,1.27
2022-10-08T13:36:24.263Z,0.80
2022-10-08T13:38:52.042Z,0.73
2022-10-08T13:41:24.116Z,0.80
2022-10-08T13:43:52.146Z,0.60
2022-10-08T13:46:19.892Z,1.08
2022-10-08T13:48:47.653Z,1.08
2022-10-08T13:51:15.346Z,0.88
2022-10-08T13:53:45.595Z,1.10
2022-10-08T13:56:13.549Z,0.95
2022-10-08T13:58:41.289Z,0.55
2022-10-08T14:01:09.086Z,1.10
2022-10-08T14:03:36.785Z,0.73
2022-10-08T14:06:04.715Z,0.43
2022-10-08T14:08:32.705Z,1.10
2022-10-08T14:11:02.147Z,1.05
2022-10-08T14:13:30.306Z,0.90
2022-10-08T14:15:58.140Z,1.00
2022-10-08T14:18:26.545Z,0.70
2022-10-08T14:20:54.388Z,0.38
2022-10-08T14:23:22.159Z,1.02
2022-10-08T14:25:49.939Z,0.77
2022-10-08T14:28:19.087Z,0.52
2022-10-08T14:30:46.810Z,0.63
2022-10-08T14:33:14.523Z,0.77
2022-10-08T14:35:42.597Z,0.90
2022-10-08T14:38:10.255Z,1.23
2022-10-08T14:40:38.944Z,0.47
2022-10-08T14:43:06.621Z,0.80
2022-10-08T14:45:35.991Z,0.73
2022-10-08T14:48:03.777Z,0.55
2022-10-08T14:50:31.798Z,0.55
2022-10-08T14:52:59.547Z,0.70
2022-10-08T14:55:27.401Z,1.10
2022-10-08T14:57:55.149Z,0.85
2022-10-08T15:00:22.912Z,0.55
2022-10-08T15:02:52.084Z,1.08
2022-10-08T15:05:19.997Z,0.95
2022-10-08T15:07:47.953Z,1.10
2022-10-08T15:10:16.065Z,0.35
2022-10-08T15:12:43.737Z,0.60
2022-10-08T15:15:11.889Z,0.70
2022-10-08T15:17:39.687Z,0.60
2022-10-08T15:20:09.879Z,0.40
2022-10-08T15:22:37.551Z,0.73
2022-10-08T15:25:05.974Z,1.10
2022-10-08T15:27:33.617Z,0.55
2022-10-08T15:30:01.345Z,1.17
2022-10-08T15:32:30.693Z,0.98
2022-10-08T15:34:58.543Z,0.60
2022-10-08T15:37:27.689Z,0.82
2022-10-08T15:39:55.358Z,1.00
2022-10-08T15:42:23.017Z,0.63
2022-10-08T15:44:50.729Z,1.13
2022-10-08T15:47:18.456Z,0.55
2022-10-08T15:49:46.315Z,0.73
2022-10-08T15:52:16.480Z,0.88
2022-10-08T15:54:46.295Z,0.40
2022-10-08T15:57:16.606Z,1.27
2022-10-08T15:59:44.408Z,0.82
2022-10-08T16:02:17.150Z,0.70
2022-10-08T16:04:47.100Z,0.70
2022-10-08T16:07:14.913Z,0.85
2022-10-08T16:09:42.642Z,0.50
2022-10-08T16:12:11.966Z,1.08
2022-10-08T16:14:39.666Z,0.85
2022-10-08T16:17:07.649Z,0.88
2022-10-08T16:19:35.434Z,0.63
2022-10-08T16:22:03.985Z,0.65
2022-10-08T16:24:31.683Z,0.40
2022-10-08T16:26:59.403Z,0.63
2022-10-08T16:29:28.750Z,0.60
2022-10-08T16:31:56.404Z,1.20
2022-10-08T16:34:27.030Z,0.82
2022-10-08T16:36:54.798Z,1.10
2022-10-08T16:39:24.290Z,1.10
2022-10-08T16:41:52.304Z,0.70
2022-10-08T16:44:22.076Z,0.82
2022-10-08T16:46:52.947Z,0.65
2022-10-08T16:49:25.428Z,0.68
2022-10-08T16:51:54.602Z,0.55
2022-10-08T16:54:22.683Z,0.68
2022-10-08T16:56:50.776Z,0.57
2022-10-08T16:59:20.538Z,0.70
2022-10-08T17:01:51.776Z,0.45
2022-10-08T17:04:20.527Z,1.42
2022-10-08T17:06:48.453Z,0.68
2022-10-08T17:09:16.354Z,1.02
2022-10-08T17:11:44.089Z,0.40
2022-10-08T17:14:12.637Z,0.60
2022-10-08T17:16:43.113Z,0.60
2022-10-08T17:19:13.265Z,0.50
2022-10-08T17:21:41.529Z,0.35
2022-10-08T17:24:10.675Z,0.25
2022-10-08T17:26:38.630Z,0.90
2022-10-08T17:29:08.883Z,0.77
2022-10-08T17:31:37.562Z,0.60
2022-10-08T17:34:06.329Z,0.63
2022-10-08T17:36:37.394Z,0.85
2022-10-08T17:39:07.734Z,0.55
2022-10-08T17:41:37.559Z,0.85
2022-10-08T17:44:08.392Z,0.20
2022-10-08T17:46:38.484Z,0.47
2022-10-08T17:49:06.506Z,1.05
2022-10-08T17:51:35.671Z,0.57
2022-10-08T17:54:05.757Z,0.57
2022-10-08T17:56:34.098Z,0.43
2022-10-08T17:59:02.181Z,1.45
2022-10-08T18:01:32.010Z,0.75
2022-10-08T18:04:02.249Z,0.85
2022-10-08T18:06:31.288Z,1.65
2022-10-08T18:09:03.661Z,0.80
2022-10-08T18:11:33.321Z,0.87
2022-10-08T18:14:02.542Z,0.93
2022-10-08T18:16:30.557Z,0.57
2022-10-08T18:18:58.681Z,0.80
2022-10-08T18:21:26.693Z,1.00
2022-10-08T18:23:54.410Z,0.80
2022-10-08T18:26:25.676Z,1.00
2022-10-08T18:28:55.283Z,1.38
2022-10-08T18:31:25.050Z,0.60
2022-10-08T18:33:56.109Z,0.82
2022-10-08T18:36:25.786Z,0.50
2022-10-08T18:38:57.613Z,0.80
2022-10-08T18:41:29.021Z,0.77
2022-10-08T18:43:59.110Z,1.00
2022-10-08T18:46:26.891Z,0.90
2022-10-08T18:48:55.691Z,0.70
2022-10-08T18:51:24.958Z,0.93
2022-10-08T18:53:54.146Z,0.60
2022-10-08T18:56:25.311Z,0.95
2022-10-08T18:58:54.721Z,0.50
2022-10-08T19:01:24.702Z,0.77
2022-10-08T19:03:55.181Z,0.68
2022-10-08T19:06:24.738Z,0.57
2022-10-08T19:08:53.060Z,0.88
2022-10-08T19:11:23.497Z,1.02
2022-10-08T19:13:54.917Z,0.55
2022-10-08T19:16:23.032Z,1.48
2022-10-08T19:18:54.845Z,1.02
2022-10-08T19:21:23.513Z,1.95
2022-10-08T19:23:52.719Z,1.77
2022-10-08T19:26:20.461Z,1.42
2022-10-08T19:28:49.889Z,1.25
2022-10-08T19:31:21.370Z,1.90
2022-10-08T19:33:50.666Z,1.50
2022-10-08T19:36:19.253Z,1.17
2022-10-08T19:38:52.792Z,1.50
2022-10-08T19:41:21.738Z,1.30
2022-10-08T19:43:49.502Z,2.13
2022-10-08T19:46:17.666Z,2.63
2022-10-08T19:48:49.337Z,3.10
2022-10-08T19:51:17.763Z,6.65
2022-10-08T19:53:45.819Z,9.07
2022-10-08T19:56:14.905Z,14.75
2022-10-08T19:58:48.531Z,15.02
2022-10-08T20:01:19.303Z,10.70
2022-10-08T20:03:48.768Z,6.22
2022-10-08T20:06:23.207Z,3.20
2022-10-08T20:08:54.149Z,2.50
2022-10-08T20:11:23.170Z,2.08
2022-10-08T20:13:52.998Z,1.65
2022-10-08T20:16:22.565Z,0.98
2022-10-08T20:18:52.688Z,1.17
2022-10-08T20:21:21.319Z,1.70
2022-10-08T20:23:49.474Z,1.45
2022-10-08T20:26:20.708Z,1.25
2022-10-08T20:28:50.418Z,1.98
2022-10-08T20:31:20.236Z,1.92
2022-10-08T20:33:48.659Z,1.52
2022-10-08T20:36:18.327Z,1.70
2022-10-08T20:38:46.022Z,1.88
2022-10-08T20:41:13.702Z,1.70
2022-10-08T20:43:41.393Z,1.50
2022-10-08T20:46:11.739Z,1.92
2022-10-08T20:48:41.780Z,1.73
2022-10-08T20:51:11.708Z,1.40
2022-10-08T20:53:41.100Z,1.55
2022-10-08T20:56:10.247Z,1.73
2022-10-08T20:58:38.406Z,3.00
2022-10-08T21:01:08.647Z,1.80
2022-10-08T21:03:37.534Z,1.77
2022-10-08T21:06:07.315Z,0.90
2022-10-08T21:08:37.770Z,1.77
2022-10-08T21:11:08.695Z,1.38
2022-10-08T21:13:37.217Z,1.40
2022-10-08T21:16:07.513Z,2.45
2022-10-08T21:18:36.029Z,1.33
2022-10-08T21:21:04.671Z,1.48
2022-10-08T21:23:32.482Z,2.15
2022-10-08T21:26:09.692Z,1.70
2022-10-08T21:28:37.831Z,1.70
2022-10-08T21:31:07.172Z,1.65
2022-10-08T21:33:39.170Z,1.38
2022-10-08T21:36:10.341Z,2.40
2022-10-08T21:38:38.429Z,1.70
2022-10-08T21:41:12.188Z,2.05
2022-10-08T21:43:40.327Z,1.55
2022-10-08T21:46:08.834Z,1.52
2022-10-08T21:48:37.081Z,1.73
2022-10-08T21:51:06.908Z,2.47
2022-10-08T21:53:36.215Z,2.58
2022-10-08T21:56:06.738Z,1.33
2022-10-08T21:58:39.051Z,1.83
2022-10-08T22:01:08.029Z,1.30
2022-10-08T22:03:36.099Z,2.38
2022-10-08T22:06:04.558Z,1.77
2022-10-08T22:08:32.731Z,1.38
2022-10-08T22:11:00.501Z,1.23
2022-10-08T22:13:28.247Z,2.85
2022-10-08T22:15:59.035Z,1.67
2022-10-08T22:18:28.769Z,1.70
2022-10-08T22:20:57.025Z,1.50
2022-10-08T22:23:24.750Z,1.83
2022-10-08T22:25:55.891Z,2.28
2022-10-08T22:28:24.148Z,2.47
2022-10-08T22:30:52.604Z,2.35
2022-10-08T22:33:22.248Z,1.83
2022-10-08T22:35:49.983Z,2.20
2022-10-08T22:38:17.733Z,1.55
2022-10-08T22:40:45.478Z,1.95
2022-10-08T22:43:13.163Z,2.13
2022-10-08T22:45:41.502Z,1.45
2022-10-08T22:48:09.261Z,1.83
2022-10-08T22:50:39.007Z,1.88
2022-10-08T22:53:06.713Z,1.58
2022-10-08T22:55:34.468Z,2.22
2022-10-08T22:58:02.194Z,1.25
2022-10-08T23:00:29.892Z,1.40
2022-10-08T23:02:57.670Z,1.25
2022-10-08T23:05:25.454Z,1.30
2022-10-08T23:07:57.126Z,1.10
2022-10-08T23:10:25.709Z,1.60
2022-10-08T23:12:53.955Z,1.17
2022-10-08T23:15:22.212Z,1.40
2022-10-08T23:17:49.902Z,0.98
2022-10-08T23:20:17.700Z,1.40
2022-10-08T23:22:45.544Z,1.45
2022-10-08T23:25:15.016Z,2.53
2022-10-08T23:27:42.670Z,1.85
2022-10-08T23:30:31.319Z,1.60
2022-10-08T23:32:58.733Z,1.75
2022-10-08T23:35:26.507Z,1.77
2022-10-08T23:37:54.595Z,1.80
2022-10-08T23:40:23.612Z,1.50
2022-10-08T23:42:52.363Z,1.60
2022-10-08T23:45:20.447Z,1.40
2022-10-08T23:47:48.123Z,1.20
2022-10-08T23:50:16.071Z,1.80
2022-10-08T23:52:43.737Z,0.85
2022-10-08T23:55:11.510Z,1.40
2022-10-08T23:57:40.609Z,1.83
